Arbela, Missouri
Current Conditions -  °F | °C
As of 10:55 AM on Sunday 23 Nov 2014 (Local Time) from KEOK Reporting Station
Light Rain Light Rain  
Wind Chill: 52°   Ceiling: 800
Heat Index: 52°   Visibility: 2.5mi
Dew Point: 52°   Wind: 7mph
Humidity: 100%   Direction: 150°SSE
Pressure: 29.52"   Gusts: 14mph
Location:  40.46°N, 92.02°W
Report Text: KEOK 231655Z AUTO 15006G12KT 2 1/2SM -RA BKN008 OVC011 11/11 A2952 RMK AO2 P0012
Loading
Personal Weather Stations






























Interactive Weather Map New forecast layout! Learn more

10-Day Weather Forecast

Advertisements
Track Severe Weather on mobile